sensor_id;sensor_type;location;lat;lon;timestamp;pressure;altitude;pressure_sealevel;temperature;humidity
64933;BME280;51446;53.850;10.662;2024-02-26T00:01:32;100330.56;;;1.55;100.00
64933;BME280;51446;53.850;10.662;2024-02-26T00:03:59;100325.78;;;1.45;100.00
64933;BME280;51446;53.850;10.662;2024-02-26T00:06:26;100328.50;;;1.48;100.00
64933;BME280;51446;53.850;10.662;2024-02-26T00:08:51;100329.47;;;1.50;100.00
64933;BME280;51446;53.850;10.662;2024-02-26T00:11:16;100335.44;;;1.49;100.00
64933;BME280;51446;53.850;10.662;2024-02-26T00:13:41;100343.41;;;1.54;100.00
64933;BME280;51446;53.850;10.662;2024-02-26T00:16:07;100339.53;;;1.44;100.00
64933;BME280;51446;53.850;10.662;2024-02-26T00:18:32;100338.50;;;1.41;100.00
64933;BME280;51446;53.850;10.662;2024-02-26T00:20:58;100346.06;;;1.36;100.00
64933;BME280;51446;53.850;10.662;2024-02-26T00:23:23;100334.84;;;1.35;100.00
64933;BME280;51446;53.850;10.662;2024-02-26T00:25:49;100343.34;;;1.33;100.00
64933;BME280;51446;53.850;10.662;2024-02-26T00:28:14;100345.78;;;1.30;100.00
64933;BME280;51446;53.850;10.662;2024-02-26T00:30:39;100344.94;;;1.31;100.00
64933;BME280;51446;53.850;10.662;2024-02-26T00:33:04;100350.94;;;1.30;100.00
64933;BME280;51446;53.850;10.662;2024-02-26T00:35:30;100345.84;;;1.31;100.00
64933;BME280;51446;53.850;10.662;2024-02-26T00:37:55;100347.00;;;1.38;100.00
64933;BME280;51446;53.850;10.662;2024-02-26T00:40:20;100345.38;;;1.40;100.00
64933;BME280;51446;53.850;10.662;2024-02-26T00:42:45;100343.34;;;1.33;100.00
64933;BME280;51446;53.850;10.662;2024-02-26T00:45:12;100341.16;;;1.23;100.00
64933;BME280;51446;53.850;10.662;2024-02-26T00:47:37;100346.78;;;1.33;100.00
64933;BME280;51446;53.850;10.662;2024-02-26T00:50:03;100347.13;;;1.41;100.00
64933;BME280;51446;53.850;10.662;2024-02-26T00:52:28;100349.19;;;1.48;100.00
64933;BME280;51446;53.850;10.662;2024-02-26T00:54:54;100349.03;;;1.45;100.00
64933;BME280;51446;53.850;10.662;2024-02-26T00:57:19;100348.09;;;1.43;100.00
64933;BME280;51446;53.850;10.662;2024-02-26T00:59:44;100350.69;;;1.43;100.00
64933;BME280;51446;53.850;10.662;2024-02-26T01:02:09;100343.75;;;1.42;100.00
64933;BME280;51446;53.850;10.662;2024-02-26T01:04:35;100351.03;;;1.51;100.00
64933;BME280;51446;53.850;10.662;2024-02-26T01:07:00;100357.09;;;1.51;100.00
64933;BME280;51446;53.850;10.662;2024-02-26T01:09:26;100349.50;;;1.36;100.00
64933;BME280;51446;53.850;10.662;2024-02-26T01:11:52;100345.19;;;1.35;100.00
64933;BME280;51446;53.850;10.662;2024-02-26T01:14:17;100353.81;;;1.18;100.00
64933;BME280;51446;53.850;10.662;2024-02-26T01:16:42;100353.69;;;1.15;100.00
64933;BME280;51446;53.850;10.662;2024-02-26T01:19:07;100352.00;;;1.15;100.00
64933;BME280;51446;53.850;10.662;2024-02-26T01:21:33;100353.09;;;1.20;100.00
64933;BME280;51446;53.850;10.662;2024-02-26T01:23:58;100359.06;;;1.19;100.00
64933;BME280;51446;53.850;10.662;2024-02-26T01:26:23;100359.22;;;1.23;100.00
64933;BME280;51446;53.850;10.662;2024-02-26T01:28:49;100351.69;;;1.27;100.00
64933;BME280;51446;53.850;10.662;2024-02-26T01:31:14;100358.38;;;1.24;100.00
64933;BME280;51446;53.850;10.662;2024-02-26T01:33:39;100366.66;;;1.16;100.00
64933;BME280;51446;53.850;10.662;2024-02-26T01:36:05;100365.06;;;1.18;100.00
64933;BME280;51446;53.850;10.662;2024-02-26T01:38:30;100360.41;;;1.11;100.00
64933;BME280;51446;53.850;10.662;2024-02-26T01:40:56;100356.19;;;1.13;100.00
64933;BME280;51446;53.850;10.662;2024-02-26T01:43:21;100365.13;;;1.02;100.00
64933;BME280;51446;53.850;10.662;2024-02-26T01:45:46;100362.41;;;0.99;100.00
64933;BME280;51446;53.850;10.662;2024-02-26T01:48:13;100356.16;;;0.94;100.00
64933;BME280;51446;53.850;10.662;2024-02-26T01:50:40;100364.97;;;0.99;100.00
64933;BME280;51446;53.850;10.662;2024-02-26T01:53:06;100361.38;;;0.95;100.00
64933;BME280;51446;53.850;10.662;2024-02-26T01:55:32;100367.00;;;0.86;100.00
64933;BME280;51446;53.850;10.662;2024-02-26T01:57:58;100361.88;;;0.70;100.00
64933;BME280;51446;53.850;10.662;2024-02-26T02:00:24;100362.75;;;0.71;100.00
64933;BME280;51446;53.850;10.662;2024-02-26T02:02:50;100373.00;;;0.69;100.00
64933;BME280;51446;53.850;10.662;2024-02-26T02:05:18;100367.56;;;0.63;100.00
64933;BME280;51446;53.850;10.662;2024-02-26T02:07:45;100372.94;;;0.67;100.00
64933;BME280;51446;53.850;10.662;2024-02-26T02:10:11;100375.22;;;0.61;100.00
64933;BME280;51446;53.850;10.662;2024-02-26T02:12:37;100379.59;;;0.62;100.00
64933;BME280;51446;53.850;10.662;2024-02-26T02:15:05;100382.81;;;0.58;100.00
64933;BME280;51446;53.850;10.662;2024-02-26T02:17:31;100375.34;;;0.46;100.00
64933;BME280;51446;53.850;10.662;2024-02-26T02:19:56;100372.78;;;0.46;100.00
64933;BME280;51446;53.850;10.662;2024-02-26T02:22:21;100375.72;;;0.54;100.00
64933;BME280;51446;53.850;10.662;2024-02-26T02:24:48;100377.03;;;0.46;100.00
64933;BME280;51446;53.850;10.662;2024-02-26T02:27:13;100379.75;;;0.49;100.00
64933;BME280;51446;53.850;10.662;2024-02-26T02:29:38;100373.00;;;0.51;100.00
64933;BME280;51446;53.850;10.662;2024-02-26T02:32:04;100377.03;;;0.46;100.00
64933;BME280;51446;53.850;10.662;2024-02-26T02:34:31;100375.22;;;0.43;100.00
64933;BME280;51446;53.850;10.662;2024-02-26T02:36:56;100371.81;;;0.44;100.00
64933;BME280;51446;53.850;10.662;2024-02-26T02:39:22;100372.31;;;0.37;100.00
64933;BME280;51446;53.850;10.662;2024-02-26T02:41:47;100379.59;;;0.28;100.00
64933;BME280;51446;53.850;10.662;2024-02-26T02:44:12;100363.81;;;0.22;100.00
64933;BME280;51446;53.850;10.662;2024-02-26T02:46:38;100373.84;;;0.33;100.00
64933;BME280;51446;53.850;10.662;2024-02-26T02:49:03;100376.44;;;0.33;100.00
64933;BME280;51446;53.850;10.662;2024-02-26T02:51:29;100383.25;;;0.33;100.00
64933;BME280;51446;53.850;10.662;2024-02-26T02:53:54;100372.81;;;0.30;100.00
64933;BME280;51446;53.850;10.662;2024-02-26T02:56:19;100367.13;;;0.19;100.00
64933;BME280;51446;53.850;10.662;2024-02-26T02:58:44;100370.41;;;0.16;100.00
64933;BME280;51446;53.850;10.662;2024-02-26T03:01:10;100372.03;;;0.14;100.00
64933;BME280;51446;53.850;10.662;2024-02-26T03:03:35;100375.50;;;0.15;100.00
64933;BME280;51446;53.850;10.662;2024-02-26T03:06:02;100377.69;;;0.07;100.00
64933;BME280;51446;53.850;10.662;2024-02-26T03:08:27;100378.06;;;0.15;100.00
64933;BME280;51446;53.850;10.662;2024-02-26T03:10:53;100375.28;;;0.10;100.00
64933;BME280;51446;53.850;10.662;2024-02-26T03:13:18;100382.34;;;0.14;100.00
64933;BME280;51446;53.850;10.662;2024-02-26T03:15:43;100390.97;;;0.15;100.00
64933;BME280;51446;53.850;10.662;2024-02-26T03:18:08;100386.69;;;0.15;100.00
64933;BME280;51446;53.850;10.662;2024-02-26T03:20:35;100389.25;;;0.15;100.00
64933;BME280;51446;53.850;10.662;2024-02-26T03:23:02;100387.75;;;0.19;100.00
64933;BME280;51446;53.850;10.662;2024-02-26T03:25:27;100385.16;;;0.19;100.00
64933;BME280;51446;53.850;10.662;2024-02-26T03:27:52;100394.25;;;0.29;100.00
64933;BME280;51446;53.850;10.662;2024-02-26T03:30:18;100394.16;;;0.27;100.00
64933;BME280;51446;53.850;10.662;2024-02-26T03:32:43;100394.91;;;0.25;100.00
64933;BME280;51446;53.850;10.662;2024-02-26T03:35:08;100400.94;;;0.25;100.00
64933;BME280;51446;53.850;10.662;2024-02-26T03:37:34;100401.25;;;0.31;100.00
64933;BME280;51446;53.850;10.662;2024-02-26T03:39:59;100399.91;;;0.22;100.00
64933;BME280;51446;53.850;10.662;2024-02-26T03:42:26;100399.56;;;0.15;100.00
64933;BME280;51446;53.850;10.662;2024-02-26T03:44:51;100405.47;;;0.13;100.00
64933;BME280;51446;53.850;10.662;2024-02-26T03:47:16;100413.13;;;0.11;100.00
64933;BME280;51446;53.850;10.662;2024-02-26T03:49:42;100407.72;;;0.07;100.00
64933;BME280;51446;53.850;10.662;2024-02-26T03:52:07;100410.22;;;0.05;100.00
64933;BME280;51446;53.850;10.662;2024-02-26T03:54:32;100412.50;;;-0.01;100.00
64933;BME280;51446;53.850;10.662;2024-02-26T03:56:57;100408.28;;;0.01;100.00
64933;BME280;51446;53.850;10.662;2024-02-26T03:59:23;100412.66;;;0.02;100.00
64933;BME280;51446;53.850;10.662;2024-02-26T04:01:50;100418.03;;;0.07;100.00
64933;BME280;51446;53.850;10.662;2024-02-26T04:04:15;100422.88;;;0.01;100.00
64933;BME280;51446;53.850;10.662;2024-02-26T04:06:44;100422.31;;;0.06;100.00
64933;BME280;51446;53.850;10.662;2024-02-26T04:09:09;100425.63;;;0.04;100.00
64933;BME280;51446;53.850;10.662;2024-02-26T04:11:35;100428.13;;;0.02;100.00
64933;BME280;51446;53.850;10.662;2024-02-26T04:14:00;100434.78;;;-0.02;100.00
64933;BME280;51446;53.850;10.662;2024-02-26T04:16:25;100434.16;;;0.03;100.00
64933;BME280;51446;53.850;10.662;2024-02-26T04:18:51;100443.44;;;-0.01;100.00
64933;BME280;51446;53.850;10.662;2024-02-26T04:21:18;100447.19;;;0.06;100.00
64933;BME280;51446;53.850;10.662;2024-02-26T04:23:43;100447.59;;;-0.03;100.00
64933;BME280;51446;53.850;10.662;2024-02-26T04:26:08;100453.16;;;-0.12;100.00
64933;BME280;51446;53.850;10.662;2024-02-26T04:28:34;100456.63;;;-0.11;100.00
64933;BME280;51446;53.850;10.662;2024-02-26T04:30:59;100460.16;;;-0.09;100.00
64933;BME280;51446;53.850;10.662;2024-02-26T04:33:24;100459.84;;;-0.15;100.00
64933;BME280;51446;53.850;10.662;2024-02-26T04:35:49;100469.16;;;-0.18;100.00
64933;BME280;51446;53.850;10.662;2024-02-26T04:38:15;100479.47;;;-0.18;100.00
64933;BME280;51446;53.850;10.662;2024-02-26T04:40:40;100484.38;;;-0.22;100.00
64933;BME280;51446;53.850;10.662;2024-02-26T04:43:05;100487.59;;;-0.26;100.00
64933;BME280;51446;53.850;10.662;2024-02-26T04:45:30;100493.28;;;-0.32;100.00
64933;BME280;51446;53.850;10.662;2024-02-26T04:47:56;100491.25;;;-0.23;100.00
64933;BME280;51446;53.850;10.662;2024-02-26T04:50:21;100495.31;;;-0.26;100.00
64933;BME280;51446;53.850;10.662;2024-02-26T04:52:46;100503.59;;;-0.32;100.00
64933;BME280;51446;53.850;10.662;2024-02-26T04:55:11;100509.59;;;-0.33;100.00
64933;BME280;51446;53.850;10.662;2024-02-26T04:57:38;100509.59;;;-0.33;100.00
64933;BME280;51446;53.850;10.662;2024-02-26T05:00:04;100517.13;;;-0.36;100.00
64933;BME280;51446;53.850;10.662;2024-02-26T05:02:30;100514.38;;;-0.39;100.00
64933;BME280;51446;53.850;10.662;2024-02-26T05:04:57;100521.84;;;-0.44;100.00
64933;BME280;51446;53.850;10.662;2024-02-26T05:07:22;100525.41;;;-0.42;100.00
64933;BME280;51446;53.850;10.662;2024-02-26T05:09:47;100523.09;;;-0.37;100.00
64933;BME280;51446;53.850;10.662;2024-02-26T05:12:14;100520.44;;;-0.39;100.00
64933;BME280;51446;53.850;10.662;2024-02-26T05:14:40;100521.75;;;-0.45;100.00
64933;BME280;51446;53.850;10.662;2024-02-26T05:17:05;100530.13;;;-0.49;100.00
64933;BME280;51446;53.850;10.662;2024-02-26T05:19:31;100529.81;;;-0.39;100.00
64933;BME280;51446;53.850;10.662;2024-02-26T05:21:56;100531.69;;;-0.37;100.00
64933;BME280;51446;53.850;10.662;2024-02-26T05:24:22;100535.16;;;-0.36;100.00
64933;BME280;51446;53.850;10.662;2024-02-26T05:26:47;100536.06;;;-0.36;100.00
64933;BME280;51446;53.850;10.662;2024-02-26T05:29:13;100531.69;;;-0.37;100.00
64933;BME280;51446;53.850;10.662;2024-02-26T05:31:38;100528.03;;;-0.25;100.00
64933;BME280;51446;53.850;10.662;2024-02-26T05:34:03;100532.78;;;-0.33;100.00
64933;BME280;51446;53.850;10.662;2024-02-26T05:36:28;100541.13;;;-0.37;100.00
64933;BME280;51446;53.850;10.662;2024-02-26T05:38:58;100547.91;;;-0.54;100.00
64933;BME280;51446;53.850;10.662;2024-02-26T05:41:24;100554.28;;;-0.47;100.00
64933;BME280;51446;53.850;10.662;2024-02-26T05:43:51;100548.50;;;-0.43;100.00
64933;BME280;51446;53.850;10.662;2024-02-26T05:46:17;100550.63;;;-0.51;100.00
64933;BME280;51446;53.850;10.662;2024-02-26T05:48:43;100555.16;;;-0.47;100.00
64933;BME280;51446;53.850;10.662;2024-02-26T05:51:09;100548.84;;;-0.52;100.00
64933;BME280;51446;53.850;10.662;2024-02-26T05:53:34;100555.38;;;-0.59;100.00
64933;BME280;51446;53.850;10.662;2024-02-26T05:55:59;100563.81;;;-0.61;100.00
64933;BME280;51446;53.850;10.662;2024-02-26T05:58:25;100565.50;;;-0.62;100.00
64933;BME280;51446;53.850;10.662;2024-02-26T06:00:50;100570.00;;;-0.58;100.00
64933;BME280;51446;53.850;10.662;2024-02-26T06:03:15;100576.41;;;-0.51;100.00
64933;BME280;51446;53.850;10.662;2024-02-26T06:05:41;100574.91;;;-0.47;100.00
64933;BME280;51446;53.850;10.662;2024-02-26T06:08:07;100586.59;;;-0.38;100.00
64933;BME280;51446;53.850;10.662;2024-02-26T06:10:32;100579.31;;;-0.30;100.00
64933;BME280;51446;53.850;10.662;2024-02-26T06:12:57;100582.31;;;-0.22;100.00
64933;BME280;51446;53.850;10.662;2024-02-26T06:15:23;100592.38;;;-0.27;100.00
64933;BME280;51446;53.850;10.662;2024-02-26T06:17:48;100586.97;;;-0.31;100.00
64933;BME280;51446;53.850;10.662;2024-02-26T06:20:13;100593.06;;;-0.29;100.00
64933;BME280;51446;53.850;10.662;2024-02-26T06:22:41;100590.13;;;-0.21;100.00
64933;BME280;51446;53.850;10.662;2024-02-26T06:25:07;100596.53;;;-0.14;100.00
64933;BME280;51446;53.850;10.662;2024-02-26T06:27:32;100602.22;;;-0.20;100.00
64933;BME280;51446;53.850;10.662;2024-02-26T06:29:58;100599.47;;;-0.23;100.00
64933;BME280;51446;53.850;10.662;2024-02-26T06:32:23;100601.78;;;-0.27;100.00
64933;BME280;51446;53.850;10.662;2024-02-26T06:34:48;100612.06;;;-0.12;100.00
64933;BME280;51446;53.850;10.662;2024-02-26T06:37:14;100607.16;;;-0.08;100.00
64933;BME280;51446;53.850;10.662;2024-02-26T06:39:39;100613.19;;;-0.07;100.00
64933;BME280;51446;53.850;10.662;2024-02-26T06:42:06;100608.94;;;-0.07;100.00
64933;BME280;51446;53.850;10.662;2024-02-26T06:44:31;100610.72;;;-0.06;100.00
64933;BME280;51446;53.850;10.662;2024-02-26T06:47:00;100615.78;;;-0.07;100.00
64933;BME280;51446;53.850;10.662;2024-02-26T06:49:26;100621.91;;;-0.05;100.00
64933;BME280;51446;53.850;10.662;2024-02-26T06:51:51;100626.00;;;0.06;100.00
64933;BME280;51446;53.850;10.662;2024-02-26T06:54:17;100621.38;;;0.32;100.00
64933;BME280;51446;53.850;10.662;2024-02-26T06:56:42;100615.78;;;0.24;100.00
64933;BME280;51446;53.850;10.662;2024-02-26T06:59:08;100625.25;;;0.40;100.00
64933;BME280;51446;53.850;10.662;2024-02-26T07:01:33;100625.00;;;0.36;100.00
64933;BME280;51446;53.850;10.662;2024-02-26T07:03:58;100631.38;;;0.42;100.00
64933;BME280;51446;53.850;10.662;2024-02-26T07:06:23;100637.09;;;0.37;100.00
64933;BME280;51446;53.850;10.662;2024-02-26T07:08:49;100630.78;;;0.31;100.00
64933;BME280;51446;53.850;10.662;2024-02-26T07:11:14;100636.72;;;0.45;100.00
64933;BME280;51446;53.850;10.662;2024-02-26T07:13:39;100638.22;;;0.42;100.00
64933;BME280;51446;53.850;10.662;2024-02-26T07:16:05;100637.88;;;0.67;100.00
64933;BME280;51446;53.850;10.662;2024-02-26T07:18:30;100642.22;;;0.68;100.00
64933;BME280;51446;53.850;10.662;2024-02-26T07:20:55;100639.69;;;0.53;100.00
64933;BME280;51446;53.850;10.662;2024-02-26T07:23:21;100641.78;;;0.44;100.00
64933;BME280;51446;53.850;10.662;2024-02-26T07:25:46;100641.31;;;0.51;100.00
64933;BME280;51446;53.850;10.662;2024-02-26T07:28:14;100643.44;;;0.58;100.00
64933;BME280;51446;53.850;10.662;2024-02-26T07:30:39;100653.03;;;0.77;100.00
64933;BME280;51446;53.850;10.662;2024-02-26T07:33:04;100648.75;;;0.78;100.00
64933;BME280;51446;53.850;10.662;2024-02-26T07:35:30;100645.69;;;0.85;100.00
64933;BME280;51446;53.850;10.662;2024-02-26T07:37:55;100644.91;;;1.02;100.00
64933;BME280;51446;53.850;10.662;2024-02-26T07:40:20;100645.94;;;1.06;100.00
64933;BME280;51446;53.850;10.662;2024-02-26T07:42:46;100630.44;;;1.23;100.00
64933;BME280;51446;53.850;10.662;2024-02-26T07:45:11;100650.75;;;1.33;100.00
64933;BME280;51446;53.850;10.662;2024-02-26T07:47:36;100647.19;;;1.47;100.00
64933;BME280;51446;53.850;10.662;2024-02-26T07:50:06;100649.91;;;1.50;100.00
64933;BME280;51446;53.850;10.662;2024-02-26T07:52:32;100648.53;;;1.57;100.00
64933;BME280;51446;53.850;10.662;2024-02-26T07:54:57;100653.69;;;1.57;100.00
64933;BME280;51446;53.850;10.662;2024-02-26T07:57:23;100654.66;;;1.59;100.00
64933;BME280;51446;53.850;10.662;2024-02-26T07:59:48;100661.53;;;1.77;100.00
64933;BME280;51446;53.850;10.662;2024-02-26T08:02:15;100666.31;;;2.03;100.00
64933;BME280;51446;53.850;10.662;2024-02-26T08:04:40;100665.72;;;2.09;100.00
64933;BME280;51446;53.850;10.662;2024-02-26T08:07:05;100672.63;;;2.10;100.00
64933;BME280;51446;53.850;10.662;2024-02-26T08:09:31;100674.19;;;2.24;100.00
64933;BME280;51446;53.850;10.662;2024-02-26T08:11:56;100674.38;;;2.65;100.00
64933;BME280;51446;53.850;10.662;2024-02-26T08:14:21;100672.06;;;2.91;100.00
64933;BME280;51446;53.850;10.662;2024-02-26T08:16:46;100673.13;;;2.76;100.00
64933;BME280;51446;53.850;10.662;2024-02-26T08:19:12;100679.31;;;3.18;100.00
64933;BME280;51446;53.850;10.662;2024-02-26T08:21:39;100685.28;;;3.36;100.00
64933;BME280;51446;53.850;10.662;2024-02-26T08:24:05;100693.38;;;3.63;100.00
64933;BME280;51446;53.850;10.662;2024-02-26T08:26:30;100692.69;;;3.68;100.00
64933;BME280;51446;53.850;10.662;2024-02-26T08:28:56;100691.84;;;3.47;100.00
64933;BME280;51446;53.850;10.662;2024-02-26T08:31:22;100695.63;;;3.96;100.00
64933;BME280;51446;53.850;10.662;2024-02-26T08:33:48;100695.16;;;4.73;100.00
64933;BME280;51446;53.850;10.662;2024-02-26T08:36:14;100697.00;;;4.76;100.00
64933;BME280;51446;53.850;10.662;2024-02-26T08:38:39;100694.41;;;4.53;100.00
64933;BME280;51446;53.850;10.662;2024-02-26T08:41:04;100702.94;;;4.28;100.00
64933;BME280;51446;53.850;10.662;2024-02-26T08:43:29;100694.06;;;4.23;100.00
64933;BME280;51446;53.850;10.662;2024-02-26T08:45:55;100702.19;;;3.88;100.00
64933;BME280;51446;53.850;10.662;2024-02-26T08:48:21;100700.16;;;3.40;100.00
64933;BME280;51446;53.850;10.662;2024-02-26T08:50:46;100705.00;;;3.33;100.00
64933;BME280;51446;53.850;10.662;2024-02-26T08:53:11;100701.53;;;2.93;100.00
64933;BME280;51446;53.850;10.662;2024-02-26T08:55:36;100703.56;;;3.00;100.00
64933;BME280;51446;53.850;10.662;2024-02-26T08:58:02;100700.72;;;2.94;100.00
64933;BME280;51446;53.850;10.662;2024-02-26T09:00:27;100707.44;;;2.90;100.00
64933;BME280;51446;53.850;10.662;2024-02-26T09:02:52;100706.88;;;3.16;100.00
64933;BME280;51446;53.850;10.662;2024-02-26T09:05:18;100708.16;;;3.06;100.00
64933;BME280;51446;53.850;10.662;2024-02-26T09:07:43;100708.97;;;3.05;100.00
64933;BME280;51446;53.850;10.662;2024-02-26T09:10:09;100709.38;;;2.94;100.00
64933;BME280;51446;53.850;10.662;2024-02-26T09:12:35;100711.47;;;3.03;100.00
64933;BME280;51446;53.850;10.662;2024-02-26T09:15:01;100715.38;;;3.13;100.00
64933;BME280;51446;53.850;10.662;2024-02-26T09:17:26;100723.28;;;3.16;100.00
64933;BME280;51446;53.850;10.662;2024-02-26T09:19:51;100717.97;;;3.13;100.00
64933;BME280;51446;53.850;10.662;2024-02-26T09:22:16;100721.69;;;3.20;100.00
64933;BME280;51446;53.850;10.662;2024-02-26T09:24:42;100728.25;;;3.31;100.00
64933;BME280;51446;53.850;10.662;2024-02-26T09:27:07;100729.06;;;3.10;100.00
64933;BME280;51446;53.850;10.662;2024-02-26T09:29:32;100736.91;;;3.12;100.00
64933;BME280;51446;53.850;10.662;2024-02-26T09:31:58;100734.31;;;3.12;100.00
64933;BME280;51446;53.850;10.662;2024-02-26T09:34:23;100751.19;;;3.22;100.00
64933;BME280;51446;53.850;10.662;2024-02-26T09:36:49;100746.47;;;3.13;100.00
64933;BME280;51446;53.850;10.662;2024-02-26T09:39:14;100749.75;;;3.28;100.00
64933;BME280;51446;53.850;10.662;2024-02-26T09:41:45;100745.59;;;3.32;100.00
64933;BME280;51446;53.850;10.662;2024-02-26T09:44:11;100744.81;;;3.54;100.00
64933;BME280;51446;53.850;10.662;2024-02-26T09:46:38;100742.22;;;3.74;100.00
64933;BME280;51446;53.850;10.662;2024-02-26T09:49:04;100744.25;;;3.81;100.00
64933;BME280;51446;53.850;10.662;2024-02-26T09:51:30;100757.09;;;3.58;100.00
64933;BME280;51446;53.850;10.662;2024-02-26T09:53:59;100752.28;;;3.66;100.00
64933;BME280;51446;53.850;10.662;2024-02-26T09:56:26;100755.63;;;3.85;100.00
64933;BME280;51446;53.850;10.662;2024-02-26T09:58:52;100756.72;;;3.90;100.00
64933;BME280;51446;53.850;10.662;2024-02-26T10:01:20;100756.72;;;3.90;100.00
64933;BME280;51446;53.850;10.662;2024-02-26T10:03:52;100760.75;;;3.83;100.00
64933;BME280;51446;53.850;10.662;2024-02-26T10:06:20;100765.34;;;4.10;100.00
64933;BME280;51446;53.850;10.662;2024-02-26T10:08:46;100766.72;;;4.02;100.00
64933;BME280;51446;53.850;10.662;2024-02-26T10:11:13;100763.09;;;3.77;100.00
64933;BME280;51446;53.850;10.662;2024-02-26T10:13:39;100774.69;;;3.65;100.00
64933;BME280;51446;53.850;10.662;2024-02-26T10:16:05;100773.59;;;3.80;100.00
64933;BME280;51446;53.850;10.662;2024-02-26T10:18:50;100777.72;;;3.75;100.00
64933;BME280;51446;53.850;10.662;2024-02-26T10:21:16;100775.91;;;3.93;100.00
64933;BME280;51446;53.850;10.662;2024-02-26T10:23:43;100786.91;;;3.88;100.00
64933;BME280;51446;53.850;10.662;2024-02-26T10:26:10;100784.25;;;3.86;100.00
64933;BME280;51446;53.850;10.662;2024-02-26T10:28:37;100790.88;;;3.99;100.00
64933;BME280;51446;53.850;10.662;2024-02-26T10:31:02;100793.72;;;4.05;100.00
64933;BME280;51446;53.850;10.662;2024-02-26T10:33:28;100790.78;;;4.19;100.00
64933;BME280;51446;53.850;10.662;2024-02-26T10:35:54;100800.13;;;4.13;100.00
64933;BME280;51446;53.850;10.662;2024-02-26T10:38:19;100800.81;;;4.09;100.00
64933;BME280;51446;53.850;10.662;2024-02-26T10:40:46;100803.72;;;4.17;100.00
64933;BME280;51446;53.850;10.662;2024-02-26T10:43:11;100793.22;;;4.14;100.00
64933;BME280;51446;53.850;10.662;2024-02-26T10:45:38;100792.84;;;4.47;100.00
64933;BME280;51446;53.850;10.662;2024-02-26T10:48:09;100797.06;;;4.45;100.00
64933;BME280;51446;53.850;10.662;2024-02-26T10:50:35;100806.88;;;4.52;100.00
64933;BME280;51446;53.850;10.662;2024-02-26T10:53:00;100807.69;;;4.72;100.00
64933;BME280;51446;53.850;10.662;2024-02-26T10:55:26;100805.50;;;5.28;100.00
64933;BME280;51446;53.850;10.662;2024-02-26T10:57:52;100807.69;;;5.40;100.00
64933;BME280;51446;53.850;10.662;2024-02-26T11:00:18;100805.84;;;5.13;100.00
64933;BME280;51446;53.850;10.662;2024-02-26T11:02:45;100807.25;;;5.28;100.00
64933;BME280;51446;53.850;10.662;2024-02-26T11:05:12;100816.44;;;4.97;100.00
64933;BME280;51446;53.850;10.662;2024-02-26T11:07:37;100809.91;;;5.29;100.00
64933;BME280;51446;53.850;10.662;2024-02-26T11:10:04;100804.31;;;4.96;100.00
64933;BME280;51446;53.850;10.662;2024-02-26T11:12:32;100798.19;;;5.18;100.00
64933;BME280;51446;53.850;10.662;2024-02-26T11:14:58;100798.84;;;5.35;100.00
64933;BME280;51446;53.850;10.662;2024-02-26T11:17:27;100805.56;;;5.52;100.00
64933;BME280;51446;53.850;10.662;2024-02-26T11:19:57;100811.88;;;5.59;100.00
64933;BME280;51446;53.850;10.662;2024-02-26T11:22:27;100808.34;;;6.05;100.00
64933;BME280;51446;53.850;10.662;2024-02-26T11:24:54;100805.97;;;5.89;100.00
64933;BME280;51446;53.850;10.662;2024-02-26T11:27:27;100808.91;;;5.50;100.00
64933;BME280;51446;53.850;10.662;2024-02-26T11:29:56;100808.44;;;5.36;100.00
64933;BME280;51446;53.850;10.662;2024-02-26T11:32:26;100806.38;;;5.51;100.00
64933;BME280;51446;53.850;10.662;2024-02-26T11:34:53;100814.84;;;5.46;100.00
64933;BME280;51446;53.850;10.662;2024-02-26T11:37:19;100811.63;;;5.77;100.00
64933;BME280;51446;53.850;10.662;2024-02-26T11:39:45;100810.09;;;5.58;100.00
64933;BME280;51446;53.850;10.662;2024-02-26T11:42:14;100813.19;;;5.48;100.00
64933;BME280;51446;53.850;10.662;2024-02-26T11:44:40;100816.75;;;5.04;100.00
64933;BME280;51446;53.850;10.662;2024-02-26T11:47:14;100812.38;;;5.03;100.00
64933;BME280;51446;53.850;10.662;2024-02-26T11:49:42;100824.63;;;5.06;100.00
64933;BME280;51446;53.850;10.662;2024-02-26T11:52:08;100818.94;;;4.94;100.00
64933;BME280;51446;53.850;10.662;2024-02-26T11:57:03;100826.13;;;5.01;100.00
64933;BME280;51446;53.850;10.662;2024-02-26T11:59:39;100817.41;;;4.99;100.00
64933;BME280;51446;53.850;10.662;2024-02-26T12:02:07;100825.22;;;4.78;100.00
64933;BME280;51446;53.850;10.662;2024-02-26T12:04:32;100833.88;;;4.99;100.00
64933;BME280;51446;53.850;10.662;2024-02-26T12:07:01;100835.19;;;5.11;100.00
64933;BME280;51446;53.850;10.662;2024-02-26T12:09:40;100837.72;;;5.09;100.00
64933;BME280;51446;53.850;10.662;2024-02-26T12:12:07;100842.00;;;5.07;100.00
64933;BME280;51446;53.850;10.662;2024-02-26T12:14:37;100836.94;;;4.89;100.00
64933;BME280;51446;53.850;10.662;2024-02-26T12:17:03;100842.69;;;5.03;100.00
64933;BME280;51446;53.850;10.662;2024-02-26T12:19:32;100846.16;;;5.03;100.00
64933;BME280;51446;53.850;10.662;2024-02-26T12:21:57;100849.06;;;4.89;100.00
64933;BME280;51446;53.850;10.662;2024-02-26T12:24:22;100858.94;;;5.20;100.00
64933;BME280;51446;53.850;10.662;2024-02-26T12:26:48;100854.66;;;4.99;100.00
64933;BME280;51446;53.850;10.662;2024-02-26T12:29:14;100858.28;;;5.03;100.00
64933;BME280;51446;53.850;10.662;2024-02-26T12:31:40;100862.63;;;5.04;100.00
64933;BME280;51446;53.850;10.662;2024-02-26T12:34:06;100855.41;;;5.18;100.00